EXS7MW GCRR-EGAA
Flight info
| Callsign | EXS7MW |
|---|---|
| Flight time | N/A |
| Altitude | 40000 |
| Route | VASTO DCT BAROK DCT LIGRA DCT RELKU DCT LULAS DCT DEMOS DCT ADVAT/M079F390 T290 GELPO DCT JABEX/N0456F390 DCT BIBLA DCT RINUS DCT TUGSI DCT DEGOS DCT BELZU |
| Aircraft | A332/H-SDE3GHIJ2J3J5M1RVWXYZ/LB2D1 |
Departure
| Time | N/A |
|---|---|
| Airport | César Manrique-Lanzarote Airport (GCRR) |
Arrival
| Time | 2026-04-30 19:37 |
|---|---|
| Airport | Belfast International Airport (EGAA) |
| Time | Latitude | Longitude | Altitude | Speed | Heading |
|---|---|---|---|---|---|
| 2026-04-30 17:39 | 34.16424 | -11.25341 | 40120 ft | 476 kts | 22° |
| 2026-04-30 17:42 | 34.74577 | -10.86342 | 40125 ft | 479 kts | 23° |
| 2026-04-30 17:43 | 34.90843 | -10.75322 | 40113 ft | 479 kts | 23° |
| 2026-04-30 17:44 | 35.08334 | -10.63415 | 40117 ft | 480 kts | 24° |
| 2026-04-30 17:47 | 35.34468 | -10.45512 | 40120 ft | 478 kts | 24° |
| 2026-04-30 17:48 | 35.54739 | -10.31534 | 40116 ft | 478 kts | 24° |
| 2026-04-30 17:50 | 35.77930 | -10.15439 | 40117 ft | 476 kts | 24° |
| 2026-04-30 17:51 | 35.86958 | -10.10945 | 40115 ft | 460 kts | 5° |
| 2026-04-30 17:52 | 35.96365 | -10.09550 | 40116 ft | 456 kts | 359° |
| 2026-04-30 17:54 | 36.24924 | -10.06442 | 40116 ft | 458 kts | 360° |
| 2026-04-30 17:56 | 36.50299 | -10.03530 | 40117 ft | 459 kts | 360° |
| 2026-04-30 17:58 | 36.69352 | -10.01333 | 40116 ft | 459 kts | 0° |
| 2026-04-30 18:00 | 36.94865 | -9.98374 | 40117 ft | 461 kts | 0° |
| 2026-04-30 18:01 | 37.10790 | -9.96517 | 40111 ft | 461 kts | 0° |
| 2026-04-30 18:02 | 37.20476 | -9.95390 | 40116 ft | 474 kts | 0° |
| 2026-04-30 18:02 | 37.30460 | -9.94221 | 40130 ft | 481 kts | 0° |
| 2026-04-30 18:04 | 37.50493 | -9.91853 | 40112 ft | 482 kts | 0° |
| 2026-04-30 18:06 | 37.77246 | -9.88682 | 40110 ft | 484 kts | 0° |
| 2026-04-30 18:08 | 38.00785 | -9.85873 | 40116 ft | 486 kts | 1° |
| 2026-04-30 18:10 | 38.27755 | -9.82631 | 40107 ft | 489 kts | 1° |
| 2026-04-30 18:11 | 38.50422 | -9.79889 | 40112 ft | 492 kts | 2° |
| 2026-04-30 18:13 | 38.67532 | -9.77807 | 40107 ft | 494 kts | 2° |
| 2026-04-30 18:14 | 38.84660 | -9.75713 | 40105 ft | 496 kts | 2° |
| 2026-04-30 18:15 | 39.05312 | -9.73174 | 40110 ft | 498 kts | 2° |
| 2026-04-30 18:16 | 39.19107 | -9.71469 | 40112 ft | 498 kts | 2° |
| 2026-04-30 18:17 | 39.26033 | -9.70612 | 40108 ft | 500 kts | 2° |
| 2026-04-30 18:18 | 39.36434 | -9.69320 | 40111 ft | 500 kts | 2° |
| 2026-04-30 18:18 | 39.43364 | -9.68457 | 40112 ft | 501 kts | 2° |
| 2026-04-30 18:19 | 39.50309 | -9.67591 | 40111 ft | 502 kts | 2° |
| 2026-04-30 18:19 | 39.57260 | -9.66722 | 40110 ft | 502 kts | 2° |
| 2026-04-30 18:20 | 39.64169 | -9.65857 | 40116 ft | 502 kts | 3° |
| 2026-04-30 18:20 | 39.71133 | -9.64983 | 40111 ft | 503 kts | 3° |
| 2026-04-30 18:21 | 39.78126 | -9.64103 | 40106 ft | 504 kts | 3° |
| 2026-04-30 18:21 | 39.85117 | -9.63222 | 40109 ft | 504 kts | 3° |
| 2026-04-30 18:22 | 39.92061 | -9.62346 | 40109 ft | 505 kts | 3° |
| 2026-04-30 18:22 | 40.02573 | -9.61015 | 40108 ft | 506 kts | 3° |
| 2026-04-30 18:23 | 40.09576 | -9.60125 | 40110 ft | 506 kts | 3° |
| 2026-04-30 18:23 | 40.16589 | -9.59233 | 40108 ft | 507 kts | 3° |
| 2026-04-30 18:24 | 40.27126 | -9.57890 | 40107 ft | 507 kts | 3° |
| 2026-04-30 18:25 | 40.34141 | -9.56992 | 40111 ft | 506 kts | 3° |
| 2026-04-30 18:25 | 40.44629 | -9.55648 | 40107 ft | 506 kts | 3° |
| 2026-04-30 18:26 | 40.55154 | -9.54295 | 40107 ft | 507 kts | 4° |
| 2026-04-30 18:27 | 40.65717 | -9.52932 | 40111 ft | 508 kts | 4° |
| 2026-04-30 18:28 | 40.76232 | -9.51571 | 40111 ft | 508 kts | 4° |
| 2026-04-30 18:28 | 40.86811 | -9.50198 | 40106 ft | 509 kts | 4° |
| 2026-04-30 18:29 | 41.00882 | -9.48364 | 40098 ft | 510 kts | 4° |
| 2026-04-30 18:30 | 41.15017 | -9.46514 | 40110 ft | 511 kts | 4° |
| 2026-04-30 18:31 | 41.25643 | -9.45118 | 40106 ft | 512 kts | 4° |
| 2026-04-30 18:32 | 41.36282 | -9.43716 | 40105 ft | 512 kts | 4° |
| 2026-04-30 18:33 | 41.46916 | -9.42310 | 40107 ft | 512 kts | 4° |
| 2026-04-30 18:33 | 41.57496 | -9.40906 | 40102 ft | 512 kts | 4° |
| 2026-04-30 18:34 | 41.68139 | -9.39489 | 40106 ft | 512 kts | 4° |
| 2026-04-30 18:35 | 41.75237 | -9.38542 | 40106 ft | 512 kts | 4° |
| 2026-04-30 18:35 | 41.82283 | -9.37599 | 40100 ft | 512 kts | 4° |
| 2026-04-30 18:36 | 41.92940 | -9.36366 | 40112 ft | 511 kts | 358° |
| 2026-04-30 18:37 | 42.03599 | -9.36541 | 40108 ft | 510 kts | 356° |
| 2026-04-30 18:37 | 42.10709 | -9.36797 | 40102 ft | 511 kts | 356° |
| 2026-04-30 18:38 | 42.17821 | -9.37055 | 40109 ft | 511 kts | 356° |
| 2026-04-30 18:38 | 42.24929 | -9.37300 | 40108 ft | 511 kts | 356° |
| 2026-04-30 18:39 | 42.31999 | -9.37539 | 40106 ft | 511 kts | 356° |
| 2026-04-30 18:39 | 42.39111 | -9.37778 | 40113 ft | 511 kts | 356° |
| 2026-04-30 18:40 | 42.46227 | -9.38019 | 40102 ft | 511 kts | 356° |
| 2026-04-30 18:40 | 42.53344 | -9.38260 | 40108 ft | 511 kts | 356° |
| 2026-04-30 18:41 | 42.60463 | -9.38502 | 40113 ft | 512 kts | 356° |
| 2026-04-30 18:41 | 42.67585 | -9.38745 | 40114 ft | 512 kts | 356° |
| 2026-04-30 18:42 | 42.74713 | -9.38989 | 40101 ft | 512 kts | 356° |
| 2026-04-30 18:42 | 42.85397 | -9.39355 | 40114 ft | 512 kts | 356° |
| 2026-04-30 18:45 | 43.24497 | -9.40705 | 40116 ft | 511 kts | 356° |
| 2026-04-30 18:46 | 43.31614 | -9.40952 | 40108 ft | 510 kts | 356° |
| 2026-04-30 18:46 | 43.38711 | -9.41200 | 40108 ft | 510 kts | 356° |
| 2026-04-30 18:47 | 43.45761 | -9.41447 | 40112 ft | 510 kts | 356° |
| 2026-04-30 18:47 | 43.52861 | -9.41695 | 40111 ft | 510 kts | 356° |
| 2026-04-30 18:48 | 43.59955 | -9.41944 | 40111 ft | 509 kts | 356° |
| 2026-04-30 18:48 | 43.67017 | -9.42193 | 40110 ft | 510 kts | 356° |
| 2026-04-30 18:49 | 43.74112 | -9.42444 | 40110 ft | 510 kts | 356° |
| 2026-04-30 18:49 | 43.81213 | -9.42695 | 40109 ft | 510 kts | 356° |
| 2026-04-30 18:50 | 43.88308 | -9.42946 | 40107 ft | 510 kts | 356° |
| 2026-04-30 18:50 | 43.95382 | -9.43198 | 40108 ft | 511 kts | 356° |
| 2026-04-30 18:51 | 44.02484 | -9.43451 | 40109 ft | 510 kts | 356° |
| 2026-04-30 18:51 | 44.09591 | -9.43705 | 40110 ft | 511 kts | 356° |
| 2026-04-30 18:52 | 44.16695 | -9.43959 | 40109 ft | 511 kts | 356° |
| 2026-04-30 18:52 | 44.23806 | -9.44214 | 40111 ft | 510 kts | 356° |
| 2026-04-30 18:53 | 44.30874 | -9.44468 | 40110 ft | 511 kts | 356° |
| 2026-04-30 18:53 | 44.37978 | -9.44725 | 40108 ft | 511 kts | 356° |
| 2026-04-30 18:54 | 44.45093 | -9.44982 | 40105 ft | 511 kts | 356° |
| 2026-04-30 18:54 | 44.52211 | -9.45240 | 40105 ft | 511 kts | 356° |
| 2026-04-30 18:55 | 44.59323 | -9.45499 | 40107 ft | 511 kts | 356° |
| 2026-04-30 18:55 | 44.69949 | -9.45886 | 40104 ft | 511 kts | 356° |
| 2026-04-30 18:56 | 44.80630 | -9.46276 | 40108 ft | 511 kts | 356° |
| 2026-04-30 18:57 | 44.91300 | -9.46668 | 40104 ft | 511 kts | 356° |
| 2026-04-30 18:57 | 44.97207 | -9.46885 | 40100 ft | 511 kts | 356° |
| 2026-04-30 18:58 | 45.07890 | -9.47105 | 40099 ft | 511 kts | 357° |
| 2026-04-30 18:59 | 45.19711 | -9.47164 | 40106 ft | 512 kts | 357° |
| 2026-04-30 19:00 | 45.32785 | -9.47265 | 40101 ft | 511 kts | 357° |
| 2026-04-30 19:01 | 45.59877 | -9.47500 | 40098 ft | 511 kts | 357° |
| 2026-04-30 19:02 | 45.81201 | -9.47685 | 40088 ft | 510 kts | 357° |
| 2026-04-30 19:03 | 46.09602 | -9.47933 | 40077 ft | 510 kts | 357° |
| 2026-04-30 19:04 | 46.38020 | -9.48184 | 40082 ft | 512 kts | 357° |
| 2026-04-30 19:05 | 46.66472 | -9.48438 | 40078 ft | 513 kts | 358° |
| 2026-04-30 19:06 | 46.94986 | -9.48695 | 40075 ft | 514 kts | 358° |
| 2026-04-30 19:06 | 47.16561 | -9.48891 | 40067 ft | 515 kts | 358° |
| 2026-04-30 19:07 | 47.38068 | -9.49088 | 40063 ft | 516 kts | 358° |
| 2026-04-30 19:08 | 47.66853 | -9.49355 | 40052 ft | 517 kts | 358° |
| 2026-04-30 19:09 | 47.88339 | -9.49556 | 40053 ft | 518 kts | 358° |
| 2026-04-30 19:09 | 48.02783 | -9.49692 | 40046 ft | 519 kts | 358° |
| 2026-04-30 19:10 | 48.31617 | -9.49965 | 40044 ft | 519 kts | 358° |
| 2026-04-30 19:11 | 48.53350 | -9.50174 | 40032 ft | 521 kts | 358° |
| 2026-04-30 19:12 | 48.67859 | -9.50297 | 40039 ft | 521 kts | 358° |
| 2026-04-30 19:12 | 48.82298 | -9.50278 | 40031 ft | 521 kts | 359° |
| 2026-04-30 19:13 | 49.11127 | -9.47324 | 40034 ft | 521 kts | 8° |
| 2026-04-30 19:14 | 49.25345 | -9.43076 | 40032 ft | 520 kts | 15° |
| 2026-04-30 19:14 | 49.39200 | -9.36833 | 40025 ft | 520 kts | 17° |
| 2026-04-30 19:15 | 49.53084 | -9.30408 | 40039 ft | 518 kts | 17° |
| 2026-04-30 19:15 | 49.73834 | -9.20777 | 40026 ft | 518 kts | 17° |
| 2026-04-30 19:16 | 49.89991 | -9.13218 | 40021 ft | 518 kts | 17° |
| 2026-04-30 19:17 | 50.31242 | -8.93675 | 40010 ft | 515 kts | 18° |
| 2026-04-30 19:17 | 50.72248 | -8.73786 | 40009 ft | 511 kts | 19° |
| 2026-04-30 19:18 | 51.12944 | -8.53071 | 40003 ft | 511 kts | 19° |
| 2026-04-30 19:19 | 51.39840 | -8.39180 | 40024 ft | 511 kts | 19° |
| 2026-04-30 19:19 | 51.80289 | -8.17961 | 40044 ft | 510 kts | 19° |
| 2026-04-30 19:20 | 52.07334 | -8.03549 | 40049 ft | 509 kts | 20° |
| 2026-04-30 19:21 | 52.47687 | -7.81700 | 40056 ft | 508 kts | 19° |
| 2026-04-30 19:22 | 53.01149 | -7.52092 | 40071 ft | 503 kts | 19° |
| 2026-04-30 19:23 | 53.64377 | -7.16264 | 39724 ft | 498 kts | 19° |
| 2026-04-30 19:24 | 53.70793 | -7.12749 | 39043 ft | 480 kts | 19° |
| 2026-04-30 19:24 | 53.73974 | -7.11018 | 37641 ft | 483 kts | 19° |
| 2026-04-30 19:24 | 53.80567 | -7.07499 | 33835 ft | 510 kts | 19° |
| 2026-04-30 19:25 | 53.90956 | -7.01991 | 28609 ft | 510 kts | 21° |
| 2026-04-30 19:26 | 53.97355 | -6.98387 | 27209 ft | 469 kts | 21° |
| 2026-04-30 19:26 | 54.03533 | -6.94940 | 24112 ft | 474 kts | 21° |
| 2026-04-30 19:26 | 54.06690 | -6.93182 | 22536 ft | 470 kts | 21° |
| 2026-04-30 19:27 | 54.12819 | -6.89735 | 19552 ft | 458 kts | 21° |
| 2026-04-30 19:27 | 54.18798 | -6.86255 | 17552 ft | 453 kts | 23° |
| 2026-04-30 19:28 | 54.21714 | -6.84356 | 16982 ft | 440 kts | 24° |
| 2026-04-30 19:28 | 54.27288 | -6.80675 | 14284 ft | 425 kts | 24° |
| 2026-04-30 19:29 | 54.32716 | -6.77094 | 11490 ft | 409 kts | 24° |
| 2026-04-30 19:29 | 54.35335 | -6.75369 | 10239 ft | 397 kts | 24° |
| 2026-04-30 19:30 | 54.42751 | -6.70474 | 6615 ft | 364 kts | 24° |
| 2026-04-30 19:30 | 54.47132 | -6.67584 | 5809 ft | 311 kts | 24° |
| 2026-04-30 19:31 | 54.50940 | -6.65060 | 5167 ft | 275 kts | 24° |
| 2026-04-30 19:31 | 54.52670 | -6.63910 | 4935 ft | 259 kts | 25° |
| 2026-04-30 19:31 | 54.55207 | -6.60486 | 4423 ft | 218 kts | 66° |
| 2026-04-30 19:32 | 54.55886 | -6.58187 | 3982 ft | 213 kts | 71° |
| 2026-04-30 19:32 | 54.56502 | -6.55880 | 3530 ft | 211 kts | 72° |
| 2026-04-30 19:32 | 54.57107 | -6.53592 | 3074 ft | 210 kts | 72° |
| 2026-04-30 19:32 | 54.57716 | -6.51314 | 2653 ft | 208 kts | 71° |
| 2026-04-30 19:33 | 54.58325 | -6.49052 | 2508 ft | 208 kts | 70° |
| 2026-04-30 19:33 | 54.58935 | -6.46798 | 2498 ft | 207 kts | 71° |
| 2026-04-30 19:33 | 54.59542 | -6.44564 | 2494 ft | 204 kts | 71° |
| 2026-04-30 19:33 | 54.60133 | -6.42390 | 2488 ft | 201 kts | 71° |
| 2026-04-30 19:34 | 54.60710 | -6.40280 | 2354 ft | 191 kts | 72° |
| 2026-04-30 19:34 | 54.61269 | -6.38228 | 2108 ft | 185 kts | 72° |
| 2026-04-30 19:34 | 54.62329 | -6.34308 | 1585 ft | 173 kts | 72° |
| 2026-04-30 19:35 | 54.62823 | -6.32488 | 1352 ft | 161 kts | 70° |
| 2026-04-30 19:35 | 54.63265 | -6.30849 | 1153 ft | 145 kts | 69° |
| 2026-04-30 19:35 | 54.63671 | -6.29347 | 956 ft | 131 kts | 70° |
| 2026-04-30 19:35 | 54.64033 | -6.27994 | 826 ft | 120 kts | 68° |
| 2026-04-30 19:36 | 54.64358 | -6.26666 | 638 ft | 116 kts | 69° |
| 2026-04-30 19:36 | 54.64715 | -6.25396 | 538 ft | 120 kts | 64° |
| 2026-04-30 19:36 | 54.65425 | -6.22805 | 276 ft | 104 kts | 66° |
| 2026-04-30 19:37 | 54.65636 | -6.21998 | 276 ft | 45 kts | 66° |
| 2026-04-30 19:37 | 54.65740 | -6.21618 | 276 ft | 34 kts | 64° |
| 2026-04-30 19:37 | 54.65864 | -6.21343 | 276 ft | 27 kts | 1° |
| 2026-04-30 19:37 | 54.65950 | -6.21492 | 276 ft | 16 kts | 255° |
| 2026-04-30 19:38 | 54.65942 | -6.21648 | 276 ft | 14 kts | 283° |
| 2026-04-30 19:38 | 54.65946 | -6.21684 | 276 ft | 3 kts | 278° |
| 2026-04-30 19:38 | 54.65950 | -6.21734 | 276 ft | 4 kts | 278° |
| 2026-04-30 19:38 | 54.65953 | -6.21768 | 276 ft | 0 kts | 278° |